Medicine Hat Airport
CYXH : now visible

Airfield :











YOU CAN JOIN US ON...

 
LOGIN :

Register | Disclaimer

   EN    FR    IT 

 









Legend :    VFR   Marginal VFR   IFR   Intensive IFR   Very Intensive IFR
Visi :
Ceiling :
>= 8 km
>= 3000ft
5 to 8 km
1000 to 3000 ft
1500m to 5 km
500 to 1000 ft
800 to 1500m
200 to 500 ft
< 800m
< 200 ft
Symbols :   Thunderstorms  Fog  Heavy snow  Heavy precipitations  Wind > 20 kt






- Airport Elevation : 2352 ft
- IATA code : YXH


CYXH - Medicine Hat

CURRENT METAR :
  • 151400Z 23004KT 30SM BKN090 BKN300 17/13 A3002 RMK ACC5CI2 SLP165 DENSITY ALT 3000FT

EXPIRED METARs :
  • 151300Z 00000KT 30SM BKN095 BKN300 16/12 A3001 RMK ACC5CI1 SLP164 DENSITY ALT 2900FT
  • 151200Z AUTO 07003KT 9SM FEW096 OVC120 15/12 A3001 RMK SLP161 DENSITY ALT 2800FT
  • 151100Z AUTO 00000KT 9SM BKN130 OVC160 14/12 A3001 RMK SLP160 DENSITY ALT 2700FT
  • 151000Z AUTO 00000KT 9SM FEW120 BKN140 14/12 A3001 RMK SLP158 DENSITY ALT 2700FT

TAF TAF CYXH
Valid from the 15 at 12:00 until the 16 at 00:00 UTC


151140Z 1512/1524 VRB03KT P6SM BKN120 OVC200
TEMPO 1512/1515 P6SM -SHRA BKN080 OVC120
FM151500 VRB03KT P6SM SCT120 BKN200
BECMG 1516/1518 10010KT RMK FCST BASED ON AUTO OBS. NXT FCST BY 151800Z
CZEG FIR / North America



MET'MAP, your aeronautical weather chart ! - Copyright ORBIFLY December 2007 - Disclaimer

ORBIFLY MET'MAP TEAM :

Programming & Development : Alexandra Zaïnal
Original concept : Baudouin d'Aumeries
Technical & hardware support : Manuel Goepfert
Assistance : Marc-Olivier Méhu




SOURCES & CREDITS :

   NOAA       Earth
Advisory